sensor_id;sensor_type;location;lat;lon;timestamp;temperature;humidity
58554;DHT22;48119;53.218;6.576;2022-08-23T00:01:23;21.40;93.00
58554;DHT22;48119;53.218;6.576;2022-08-23T00:03:50;21.40;93.00
58554;DHT22;48119;53.218;6.576;2022-08-23T00:06:18;21.40;93.00
58554;DHT22;48119;53.218;6.576;2022-08-23T00:08:48;21.40;93.00
58554;DHT22;48119;53.218;6.576;2022-08-23T00:14:05;21.40;92.90
58554;DHT22;48119;53.218;6.576;2022-08-23T00:16:32;21.30;92.90
58554;DHT22;48119;53.218;6.576;2022-08-23T00:18:58;21.30;93.00
58554;DHT22;48119;53.218;6.576;2022-08-23T00:21:24;21.40;93.00
58554;DHT22;48119;53.218;6.576;2022-08-23T00:23:50;21.30;93.10
58554;DHT22;48119;53.218;6.576;2022-08-23T00:26:16;21.30;93.10
58554;DHT22;48119;53.218;6.576;2022-08-23T00:28:45;21.30;93.20
58554;DHT22;48119;53.218;6.576;2022-08-23T00:31:12;21.30;93.20
58554;DHT22;48119;53.218;6.576;2022-08-23T00:33:44;21.30;93.30
58554;DHT22;48119;53.218;6.576;2022-08-23T00:36:11;21.20;93.30
58554;DHT22;48119;53.218;6.576;2022-08-23T00:38:37;21.30;93.30
58554;DHT22;48119;53.218;6.576;2022-08-23T00:41:03;21.20;93.30
58554;DHT22;48119;53.218;6.576;2022-08-23T00:43:34;21.20;93.30
58554;DHT22;48119;53.218;6.576;2022-08-23T00:49:55;21.20;93.40
58554;DHT22;48119;53.218;6.576;2022-08-23T00:55:27;21.20;93.40
58554;DHT22;48119;53.218;6.576;2022-08-23T00:57:54;21.20;93.40
58554;DHT22;48119;53.218;6.576;2022-08-23T01:00:21;21.20;93.40
58554;DHT22;48119;53.218;6.576;2022-08-23T01:02:49;21.20;93.40
58554;DHT22;48119;53.218;6.576;2022-08-23T01:05:20;21.20;93.40
58554;DHT22;48119;53.218;6.576;2022-08-23T01:07:53;21.20;93.40
58554;DHT22;48119;53.218;6.576;2022-08-23T01:10:42;21.20;93.50
58554;DHT22;48119;53.218;6.576;2022-08-23T01:13:23;21.20;93.50
58554;DHT22;48119;53.218;6.576;2022-08-23T01:16:01;21.10;93.50
58554;DHT22;48119;53.218;6.576;2022-08-23T01:18:37;21.10;93.50
58554;DHT22;48119;53.218;6.576;2022-08-23T01:26:14;21.10;93.60
58554;DHT22;48119;53.218;6.576;2022-08-23T01:28:42;21.10;93.60
58554;DHT22;48119;53.218;6.576;2022-08-23T01:31:09;21.10;93.60
58554;DHT22;48119;53.218;6.576;2022-08-23T01:33:37;21.10;93.60
58554;DHT22;48119;53.218;6.576;2022-08-23T01:36:07;21.10;93.70
58554;DHT22;48119;53.218;6.576;2022-08-23T01:38:34;21.10;93.70
58554;DHT22;48119;53.218;6.576;2022-08-23T01:41:07;21.10;93.70
58554;DHT22;48119;53.218;6.576;2022-08-23T01:43:34;21.10;93.70
58554;DHT22;48119;53.218;6.576;2022-08-23T01:46:09;21.10;93.80
58554;DHT22;48119;53.218;6.576;2022-08-23T01:48:36;21.10;93.80
58554;DHT22;48119;53.218;6.576;2022-08-23T01:51:02;21.10;93.80
58554;DHT22;48119;53.218;6.576;2022-08-23T01:53:33;21.10;93.80
58554;DHT22;48119;53.218;6.576;2022-08-23T01:56:00;21.10;93.80
58554;DHT22;48119;53.218;6.576;2022-08-23T01:58:33;21.10;93.90
58554;DHT22;48119;53.218;6.576;2022-08-23T02:00:59;21.10;93.90
58554;DHT22;48119;53.218;6.576;2022-08-23T02:03:26;21.20;93.90
58554;DHT22;48119;53.218;6.576;2022-08-23T02:05:55;21.10;93.90
58554;DHT22;48119;53.218;6.576;2022-08-23T02:08:22;21.10;94.00
58554;DHT22;48119;53.218;6.576;2022-08-23T02:11:11;21.10;94.00
58554;DHT22;48119;53.218;6.576;2022-08-23T02:13:37;21.10;94.00
58554;DHT22;48119;53.218;6.576;2022-08-23T02:16:03;21.10;94.00
58554;DHT22;48119;53.218;6.576;2022-08-23T02:18:31;21.10;94.00
58554;DHT22;48119;53.218;6.576;2022-08-23T02:20:56;21.00;94.00
58554;DHT22;48119;53.218;6.576;2022-08-23T02:23:26;21.00;94.10
58554;DHT22;48119;53.218;6.576;2022-08-23T02:25:53;21.00;94.10
58554;DHT22;48119;53.218;6.576;2022-08-23T02:28:20;21.00;94.20
58554;DHT22;48119;53.218;6.576;2022-08-23T02:30:52;21.00;94.20
58554;DHT22;48119;53.218;6.576;2022-08-23T02:33:18;21.00;94.20
58554;DHT22;48119;53.218;6.576;2022-08-23T02:35:46;21.00;94.20
58554;DHT22;48119;53.218;6.576;2022-08-23T02:38:14;21.00;94.20
58554;DHT22;48119;53.218;6.576;2022-08-23T02:40:46;21.00;94.20
58554;DHT22;48119;53.218;6.576;2022-08-23T02:43:14;21.00;94.30
58554;DHT22;48119;53.218;6.576;2022-08-23T02:45:43;21.00;94.30
58554;DHT22;48119;53.218;6.576;2022-08-23T02:48:11;21.00;94.30
58554;DHT22;48119;53.218;6.576;2022-08-23T02:50:38;21.00;94.30
58554;DHT22;48119;53.218;6.576;2022-08-23T02:53:10;21.00;94.30
58554;DHT22;48119;53.218;6.576;2022-08-23T02:55:36;20.90;94.40
58554;DHT22;48119;53.218;6.576;2022-08-23T02:58:02;21.00;94.40
58554;DHT22;48119;53.218;6.576;2022-08-23T03:00:30;20.90;94.40
58554;DHT22;48119;53.218;6.576;2022-08-23T03:02:56;20.90;94.40
58554;DHT22;48119;53.218;6.576;2022-08-23T03:05:22;20.90;94.40
58554;DHT22;48119;53.218;6.576;2022-08-23T03:07:47;20.90;94.40
58554;DHT22;48119;53.218;6.576;2022-08-23T03:10:16;20.90;94.40
58554;DHT22;48119;53.218;6.576;2022-08-23T03:12:42;20.90;94.50
58554;DHT22;48119;53.218;6.576;2022-08-23T03:15:09;20.80;94.50
58554;DHT22;48119;53.218;6.576;2022-08-23T03:17:36;20.80;94.50
58554;DHT22;48119;53.218;6.576;2022-08-23T03:20:03;20.80;94.50
58554;DHT22;48119;53.218;6.576;2022-08-23T03:22:29;20.80;94.50
58554;DHT22;48119;53.218;6.576;2022-08-23T03:24:56;20.80;94.50
58554;DHT22;48119;53.218;6.576;2022-08-23T03:27:23;20.80;94.50
58554;DHT22;48119;53.218;6.576;2022-08-23T03:29:49;20.80;94.50
58554;DHT22;48119;53.218;6.576;2022-08-23T03:32:15;20.80;94.40
58554;DHT22;48119;53.218;6.576;2022-08-23T03:34:42;20.80;94.40
58554;DHT22;48119;53.218;6.576;2022-08-23T03:37:09;20.80;94.40
58554;DHT22;48119;53.218;6.576;2022-08-23T03:39:36;20.80;94.40
58554;DHT22;48119;53.218;6.576;2022-08-23T03:42:02;20.80;94.40
58554;DHT22;48119;53.218;6.576;2022-08-23T03:44:28;20.80;94.40
58554;DHT22;48119;53.218;6.576;2022-08-23T03:46:54;20.80;94.40
58554;DHT22;48119;53.218;6.576;2022-08-23T03:49:20;20.80;94.40
58554;DHT22;48119;53.218;6.576;2022-08-23T03:51:46;20.80;94.40
58554;DHT22;48119;53.218;6.576;2022-08-23T03:54:12;20.80;94.40
58554;DHT22;48119;53.218;6.576;2022-08-23T03:56:50;20.70;94.40
58554;DHT22;48119;53.218;6.576;2022-08-23T03:59:16;20.70;94.40
58554;DHT22;48119;53.218;6.576;2022-08-23T04:01:43;20.70;94.40
58554;DHT22;48119;53.218;6.576;2022-08-23T04:04:12;20.70;94.40
58554;DHT22;48119;53.218;6.576;2022-08-23T04:06:38;20.70;94.40
58554;DHT22;48119;53.218;6.576;2022-08-23T04:09:04;20.70;94.40
58554;DHT22;48119;53.218;6.576;2022-08-23T04:11:30;20.70;94.50
58554;DHT22;48119;53.218;6.576;2022-08-23T04:13:56;20.60;94.50
58554;DHT22;48119;53.218;6.576;2022-08-23T04:16:28;20.60;94.50
58554;DHT22;48119;53.218;6.576;2022-08-23T04:19:15;20.60;94.50
58554;DHT22;48119;53.218;6.576;2022-08-23T04:21:50;20.70;94.50
58554;DHT22;48119;53.218;6.576;2022-08-23T04:24:16;20.60;94.50
58554;DHT22;48119;53.218;6.576;2022-08-23T04:26:43;20.60;94.50
58554;DHT22;48119;53.218;6.576;2022-08-23T04:29:12;20.60;94.60
58554;DHT22;48119;53.218;6.576;2022-08-23T04:31:45;20.60;94.60
58554;DHT22;48119;53.218;6.576;2022-08-23T04:34:12;20.60;94.60
58554;DHT22;48119;53.218;6.576;2022-08-23T04:36:41;20.60;94.60
58554;DHT22;48119;53.218;6.576;2022-08-23T04:39:13;20.60;94.60
58554;DHT22;48119;53.218;6.576;2022-08-23T04:41:41;20.50;94.60
58554;DHT22;48119;53.218;6.576;2022-08-23T04:44:25;20.60;94.60
58554;DHT22;48119;53.218;6.576;2022-08-23T04:46:51;20.50;94.60
58554;DHT22;48119;53.218;6.576;2022-08-23T04:49:18;20.60;94.90
58554;DHT22;48119;53.218;6.576;2022-08-23T04:51:44;20.50;94.50
58554;DHT22;48119;53.218;6.576;2022-08-23T04:54:14;20.60;94.50
58554;DHT22;48119;53.218;6.576;2022-08-23T04:56:41;20.50;94.40
58554;DHT22;48119;53.218;6.576;2022-08-23T04:59:16;20.60;94.40
58554;DHT22;48119;53.218;6.576;2022-08-23T05:01:41;20.50;94.20
58554;DHT22;48119;53.218;6.576;2022-08-23T05:04:09;20.40;94.30
58554;DHT22;48119;53.218;6.576;2022-08-23T05:06:38;20.40;94.30
58554;DHT22;48119;53.218;6.576;2022-08-23T05:09:05;20.40;94.30
58554;DHT22;48119;53.218;6.576;2022-08-23T05:11:36;20.40;94.30
58554;DHT22;48119;53.218;6.576;2022-08-23T05:14:08;20.40;94.20
58554;DHT22;48119;53.218;6.576;2022-08-23T05:16:35;20.40;94.20
58554;DHT22;48119;53.218;6.576;2022-08-23T05:19:01;20.40;94.20
58554;DHT22;48119;53.218;6.576;2022-08-23T05:21:30;20.40;94.10
58554;DHT22;48119;53.218;6.576;2022-08-23T05:23:56;20.40;94.10
58554;DHT22;48119;53.218;6.576;2022-08-23T05:26:22;20.40;94.10
58554;DHT22;48119;53.218;6.576;2022-08-23T05:28:48;20.40;94.00
58554;DHT22;48119;53.218;6.576;2022-08-23T05:31:18;20.40;93.90
58554;DHT22;48119;53.218;6.576;2022-08-23T05:33:45;20.40;93.80
58554;DHT22;48119;53.218;6.576;2022-08-23T05:36:12;20.40;93.70
58554;DHT22;48119;53.218;6.576;2022-08-23T05:38:39;20.40;93.70
58554;DHT22;48119;53.218;6.576;2022-08-23T05:41:07;20.40;93.60
58554;DHT22;48119;53.218;6.576;2022-08-23T05:43:34;20.40;93.60
58554;DHT22;48119;53.218;6.576;2022-08-23T05:48:40;20.40;93.50
58554;DHT22;48119;53.218;6.576;2022-08-23T05:51:22;20.40;93.50
58554;DHT22;48119;53.218;6.576;2022-08-23T05:53:52;20.50;93.40
58554;DHT22;48119;53.218;6.576;2022-08-23T05:56:30;20.50;93.40
58554;DHT22;48119;53.218;6.576;2022-08-23T05:58:59;20.50;93.30
58554;DHT22;48119;53.218;6.576;2022-08-23T06:01:28;20.50;93.30
58554;DHT22;48119;53.218;6.576;2022-08-23T06:04:01;20.50;93.30
58554;DHT22;48119;53.218;6.576;2022-08-23T06:06:31;20.50;93.30
58554;DHT22;48119;53.218;6.576;2022-08-23T06:08:58;20.60;93.30
58554;DHT22;48119;53.218;6.576;2022-08-23T06:11:27;20.60;93.20
58554;DHT22;48119;53.218;6.576;2022-08-23T06:13:59;20.60;93.20
58554;DHT22;48119;53.218;6.576;2022-08-23T06:16:31;20.60;93.20
58554;DHT22;48119;53.218;6.576;2022-08-23T06:18:58;20.60;93.10
58554;DHT22;48119;53.218;6.576;2022-08-23T06:21:34;20.60;93.00
58554;DHT22;48119;53.218;6.576;2022-08-23T06:24:02;20.70;92.90
58554;DHT22;48119;53.218;6.576;2022-08-23T06:26:33;20.70;92.90
58554;DHT22;48119;53.218;6.576;2022-08-23T06:29:02;20.70;92.80
58554;DHT22;48119;53.218;6.576;2022-08-23T06:31:29;20.70;92.80
58554;DHT22;48119;53.218;6.576;2022-08-23T06:36:40;20.70;92.70
58554;DHT22;48119;53.218;6.576;2022-08-23T06:39:08;20.80;92.60
58554;DHT22;48119;53.218;6.576;2022-08-23T06:41:36;20.70;92.50
58554;DHT22;48119;53.218;6.576;2022-08-23T06:44:03;20.80;92.40
58554;DHT22;48119;53.218;6.576;2022-08-23T06:46:37;20.80;92.40
58554;DHT22;48119;53.218;6.576;2022-08-23T06:49:06;20.80;92.30
58554;DHT22;48119;53.218;6.576;2022-08-23T06:51:40;20.90;92.30
58554;DHT22;48119;53.218;6.576;2022-08-23T06:54:09;20.90;92.10
58554;DHT22;48119;53.218;6.576;2022-08-23T06:56:39;20.90;92.10
58554;DHT22;48119;53.218;6.576;2022-08-23T06:59:10;20.90;92.10
58554;DHT22;48119;53.218;6.576;2022-08-23T07:01:47;21.00;92.10
58554;DHT22;48119;53.218;6.576;2022-08-23T07:04:25;21.00;92.00
58554;DHT22;48119;53.218;6.576;2022-08-23T07:06:55;21.00;92.00
58554;DHT22;48119;53.218;6.576;2022-08-23T07:09:30;21.00;92.00
58554;DHT22;48119;53.218;6.576;2022-08-23T07:11:58;21.00;91.90
58554;DHT22;48119;53.218;6.576;2022-08-23T07:14:33;21.10;91.90
58554;DHT22;48119;53.218;6.576;2022-08-23T07:17:15;21.10;92.30
58554;DHT22;48119;53.218;6.576;2022-08-23T07:19:50;21.10;91.90
58554;DHT22;48119;53.218;6.576;2022-08-23T07:22:19;21.10;91.70
58554;DHT22;48119;53.218;6.576;2022-08-23T07:24:45;21.20;91.60
58554;DHT22;48119;53.218;6.576;2022-08-23T07:27:11;21.20;91.50
58554;DHT22;48119;53.218;6.576;2022-08-23T07:29:38;21.20;91.40
58554;DHT22;48119;53.218;6.576;2022-08-23T07:32:08;21.20;91.40
58554;DHT22;48119;53.218;6.576;2022-08-23T07:34:34;21.30;91.40
58554;DHT22;48119;53.218;6.576;2022-08-23T07:37:00;21.30;91.40
58554;DHT22;48119;53.218;6.576;2022-08-23T07:39:26;21.30;91.40
58554;DHT22;48119;53.218;6.576;2022-08-23T07:41:53;21.30;91.30
58554;DHT22;48119;53.218;6.576;2022-08-23T07:44:21;21.30;91.30
58554;DHT22;48119;53.218;6.576;2022-08-23T07:46:49;21.40;91.40
58554;DHT22;48119;53.218;6.576;2022-08-23T07:49:16;21.40;91.30
58554;DHT22;48119;53.218;6.576;2022-08-23T07:51:46;21.50;91.30
58554;DHT22;48119;53.218;6.576;2022-08-23T07:54:13;21.50;91.10
58554;DHT22;48119;53.218;6.576;2022-08-23T07:56:39;21.50;91.00
58554;DHT22;48119;53.218;6.576;2022-08-23T07:59:11;21.60;90.90
58554;DHT22;48119;53.218;6.576;2022-08-23T08:01:41;21.60;90.80
58554;DHT22;48119;53.218;6.576;2022-08-23T08:04:07;21.60;90.70
58554;DHT22;48119;53.218;6.576;2022-08-23T08:06:45;21.60;90.60
58554;DHT22;48119;53.218;6.576;2022-08-23T08:09:26;21.60;90.50
58554;DHT22;48119;53.218;6.576;2022-08-23T08:11:52;21.70;90.40
58554;DHT22;48119;53.218;6.576;2022-08-23T08:14:25;21.70;90.40
58554;DHT22;48119;53.218;6.576;2022-08-23T08:16:54;21.70;90.40
58554;DHT22;48119;53.218;6.576;2022-08-23T08:19:22;21.70;90.50
58554;DHT22;48119;53.218;6.576;2022-08-23T08:21:50;21.70;90.50
58554;DHT22;48119;53.218;6.576;2022-08-23T08:24:16;21.80;90.50
58554;DHT22;48119;53.218;6.576;2022-08-23T08:26:48;21.80;90.60
58554;DHT22;48119;53.218;6.576;2022-08-23T08:29:14;21.80;90.50
58554;DHT22;48119;53.218;6.576;2022-08-23T08:31:42;21.90;90.50
58554;DHT22;48119;53.218;6.576;2022-08-23T08:34:11;21.90;90.50
58554;DHT22;48119;53.218;6.576;2022-08-23T08:39:09;22.00;90.20
58554;DHT22;48119;53.218;6.576;2022-08-23T08:45:02;22.00;90.30
58554;DHT22;48119;53.218;6.576;2022-08-23T08:53:11;22.10;90.20
58554;DHT22;48119;53.218;6.576;2022-08-23T08:55:46;22.10;90.40
58554;DHT22;48119;53.218;6.576;2022-08-23T08:58:27;22.20;90.40
58554;DHT22;48119;53.218;6.576;2022-08-23T09:00:55;22.20;90.30
58554;DHT22;48119;53.218;6.576;2022-08-23T09:03:22;22.20;90.20
58554;DHT22;48119;53.218;6.576;2022-08-23T09:06:13;22.30;90.20
58554;DHT22;48119;53.218;6.576;2022-08-23T09:17:43;22.50;89.80
58554;DHT22;48119;53.218;6.576;2022-08-23T09:20:16;22.60;89.70
58554;DHT22;48119;53.218;6.576;2022-08-23T09:22:51;22.60;90.00
58554;DHT22;48119;53.218;6.576;2022-08-23T09:25:52;22.70;89.70
58554;DHT22;48119;53.218;6.576;2022-08-23T09:28:21;22.70;89.70
58554;DHT22;48119;53.218;6.576;2022-08-23T09:31:06;22.80;89.50
58554;DHT22;48119;53.218;6.576;2022-08-23T09:36:26;22.90;88.80
58554;DHT22;48119;53.218;6.576;2022-08-23T09:41:50;23.00;88.50
58554;DHT22;48119;53.218;6.576;2022-08-23T09:44:49;23.10;88.00
58554;DHT22;48119;53.218;6.576;2022-08-23T09:47:15;23.20;87.90
58554;DHT22;48119;53.218;6.576;2022-08-23T09:49:45;23.20;87.30
58554;DHT22;48119;53.218;6.576;2022-08-23T09:52:25;23.30;86.70
58554;DHT22;48119;53.218;6.576;2022-08-23T09:55:00;23.30;85.90
58554;DHT22;48119;53.218;6.576;2022-08-23T09:57:30;23.40;85.80
58554;DHT22;48119;53.218;6.576;2022-08-23T10:00:23;23.40;85.60
58554;DHT22;48119;53.218;6.576;2022-08-23T10:02:49;23.50;85.40
58554;DHT22;48119;53.218;6.576;2022-08-23T10:05:36;23.50;85.30
58554;DHT22;48119;53.218;6.576;2022-08-23T10:08:03;23.60;84.80
58554;DHT22;48119;53.218;6.576;2022-08-23T10:10:40;23.60;83.90
58554;DHT22;48119;53.218;6.576;2022-08-23T10:13:10;23.70;82.30
58554;DHT22;48119;53.218;6.576;2022-08-23T10:24:40;23.90;79.60
58554;DHT22;48119;53.218;6.576;2022-08-23T10:30:25;24.00;79.60
58554;DHT22;48119;53.218;6.576;2022-08-23T10:33:11;24.00;79.70
58554;DHT22;48119;53.218;6.576;2022-08-23T10:35:51;24.10;80.00
58554;DHT22;48119;53.218;6.576;2022-08-23T10:41:00;24.20;79.20
58554;DHT22;48119;53.218;6.576;2022-08-23T10:46:07;24.30;78.40
58554;DHT22;48119;53.218;6.576;2022-08-23T10:49:07;24.40;78.90
58554;DHT22;48119;53.218;6.576;2022-08-23T10:51:37;24.40;79.30
58554;DHT22;48119;53.218;6.576;2022-08-23T10:57:01;24.50;78.70
58554;DHT22;48119;53.218;6.576;2022-08-23T10:59:28;24.50;78.10
58554;DHT22;48119;53.218;6.576;2022-08-23T11:02:29;24.60;77.60
58554;DHT22;48119;53.218;6.576;2022-08-23T11:05:29;24.60;77.20
58554;DHT22;48119;53.218;6.576;2022-08-23T11:10:47;24.70;75.90
58554;DHT22;48119;53.218;6.576;2022-08-23T11:13:18;24.70;75.80
58554;DHT22;48119;53.218;6.576;2022-08-23T11:15:59;24.80;76.20
58554;DHT22;48119;53.218;6.576;2022-08-23T11:18:45;24.80;76.50
58554;DHT22;48119;53.218;6.576;2022-08-23T11:31:57;25.00;75.00
58554;DHT22;48119;53.218;6.576;2022-08-23T11:34:39;25.00;74.70
58554;DHT22;48119;53.218;6.576;2022-08-23T11:37:27;25.00;74.40
58554;DHT22;48119;53.218;6.576;2022-08-23T11:42:48;25.00;74.50
58554;DHT22;48119;53.218;6.576;2022-08-23T11:45:43;25.20;75.30
58554;DHT22;48119;53.218;6.576;2022-08-23T11:53:48;25.20;73.90
58554;DHT22;48119;53.218;6.576;2022-08-23T12:01:37;25.30;73.50
58554;DHT22;48119;53.218;6.576;2022-08-23T12:04:11;25.40;73.50
58554;DHT22;48119;53.218;6.576;2022-08-23T12:06:54;25.40;73.90
58554;DHT22;48119;53.218;6.576;2022-08-23T12:14:33;25.60;72.70
58554;DHT22;48119;53.218;6.576;2022-08-23T12:17:04;25.60;72.80
58554;DHT22;48119;53.218;6.576;2022-08-23T12:19:59;25.60;72.90
58554;DHT22;48119;53.218;6.576;2022-08-23T12:23:00;25.60;72.80
58554;DHT22;48119;53.218;6.576;2022-08-23T12:25:29;25.60;74.10
58554;DHT22;48119;53.218;6.576;2022-08-23T12:30:58;25.70;72.40
58554;DHT22;48119;53.218;6.576;2022-08-23T12:36:53;25.90;72.30
58554;DHT22;48119;53.218;6.576;2022-08-23T12:39:30;25.90;71.40
58554;DHT22;48119;53.218;6.576;2022-08-23T12:42:26;25.90;71.00
58554;DHT22;48119;53.218;6.576;2022-08-23T12:45:17;25.90;71.00
58554;DHT22;48119;53.218;6.576;2022-08-23T12:47:55;25.90;70.80
58554;DHT22;48119;53.218;6.576;2022-08-23T12:50:30;25.90;71.10
58554;DHT22;48119;53.218;6.576;2022-08-23T12:53:03;25.80;71.10
58554;DHT22;48119;53.218;6.576;2022-08-23T12:55:37;25.90;70.80
58554;DHT22;48119;53.218;6.576;2022-08-23T12:58:08;25.80;70.70
58554;DHT22;48119;53.218;6.576;2022-08-23T13:00:59;25.80;70.90
58554;DHT22;48119;53.218;6.576;2022-08-23T13:03:34;25.80;70.70
58554;DHT22;48119;53.218;6.576;2022-08-23T13:06:14;25.80;70.60
58554;DHT22;48119;53.218;6.576;2022-08-23T13:08:45;25.80;70.40
58554;DHT22;48119;53.218;6.576;2022-08-23T13:11:16;25.80;69.70
58554;DHT22;48119;53.218;6.576;2022-08-23T13:13:47;25.80;69.60
58554;DHT22;48119;53.218;6.576;2022-08-23T13:16:40;25.80;69.80
58554;DHT22;48119;53.218;6.576;2022-08-23T13:21:40;25.90;70.70
58554;DHT22;48119;53.218;6.576;2022-08-23T13:24:35;25.80;70.90
58554;DHT22;48119;53.218;6.576;2022-08-23T13:29:54;25.90;70.30
58554;DHT22;48119;53.218;6.576;2022-08-23T13:32:42;25.90;70.70
58554;DHT22;48119;53.218;6.576;2022-08-23T13:38:21;25.80;70.10
58554;DHT22;48119;53.218;6.576;2022-08-23T13:46:26;25.80;69.00
58554;DHT22;48119;53.218;6.576;2022-08-23T13:51:40;25.80;68.50
58554;DHT22;48119;53.218;6.576;2022-08-23T13:54:13;25.80;68.30
58554;DHT22;48119;53.218;6.576;2022-08-23T13:56:49;25.80;67.90
58554;DHT22;48119;53.218;6.576;2022-08-23T13:59:26;25.80;68.10
58554;DHT22;48119;53.218;6.576;2022-08-23T14:01:54;25.90;68.50
58554;DHT22;48119;53.218;6.576;2022-08-23T14:04:20;25.90;68.10
58554;DHT22;48119;53.218;6.576;2022-08-23T14:06:48;25.90;67.70
58554;DHT22;48119;53.218;6.576;2022-08-23T14:09:14;25.90;67.40
58554;DHT22;48119;53.218;6.576;2022-08-23T14:11:44;25.90;67.00
58554;DHT22;48119;53.218;6.576;2022-08-23T14:14:12;26.00;66.80
58554;DHT22;48119;53.218;6.576;2022-08-23T14:16:39;26.00;66.90
58554;DHT22;48119;53.218;6.576;2022-08-23T14:19:10;26.00;66.80
58554;DHT22;48119;53.218;6.576;2022-08-23T14:21:38;26.00;66.70
58554;DHT22;48119;53.218;6.576;2022-08-23T14:24:04;26.10;67.30
58554;DHT22;48119;53.218;6.576;2022-08-23T14:26:34;26.10;67.30
58554;DHT22;48119;53.218;6.576;2022-08-23T14:29:09;26.00;66.80
58554;DHT22;48119;53.218;6.576;2022-08-23T14:31:35;26.10;66.60
58554;DHT22;48119;53.218;6.576;2022-08-23T14:34:01;26.10;66.60
58554;DHT22;48119;53.218;6.576;2022-08-23T14:36:33;26.00;66.30
58554;DHT22;48119;53.218;6.576;2022-08-23T14:38:58;26.10;66.20
58554;DHT22;48119;53.218;6.576;2022-08-23T14:41:25;26.10;66.50
58554;DHT22;48119;53.218;6.576;2022-08-23T14:43:52;26.00;66.30
58554;DHT22;48119;53.218;6.576;2022-08-23T14:46:19;26.00;66.50
58554;DHT22;48119;53.218;6.576;2022-08-23T14:48:46;26.00;66.50
58554;DHT22;48119;53.218;6.576;2022-08-23T14:51:25;26.00;66.70
58554;DHT22;48119;53.218;6.576;2022-08-23T14:53:55;26.00;67.10
58554;DHT22;48119;53.218;6.576;2022-08-23T14:56:20;26.00;67.00
58554;DHT22;48119;53.218;6.576;2022-08-23T14:58:48;26.00;66.90
58554;DHT22;48119;53.218;6.576;2022-08-23T15:01:17;26.00;67.00
58554;DHT22;48119;53.218;6.576;2022-08-23T15:03:44;26.10;67.00
58554;DHT22;48119;53.218;6.576;2022-08-23T15:06:11;26.10;67.20
58554;DHT22;48119;53.218;6.576;2022-08-23T15:08:37;26.10;66.90
58554;DHT22;48119;53.218;6.576;2022-08-23T15:11:03;26.20;66.80
58554;DHT22;48119;53.218;6.576;2022-08-23T15:13:32;26.20;66.90
58554;DHT22;48119;53.218;6.576;2022-08-23T15:15:59;26.20;66.90
58554;DHT22;48119;53.218;6.576;2022-08-23T15:18:29;26.20;67.40
58554;DHT22;48119;53.218;6.576;2022-08-23T15:20:56;26.20;67.10
58554;DHT22;48119;53.218;6.576;2022-08-23T15:23:29;26.20;66.30
58554;DHT22;48119;53.218;6.576;2022-08-23T15:25:57;26.20;66.00
58554;DHT22;48119;53.218;6.576;2022-08-23T15:28:23;26.20;66.40
58554;DHT22;48119;53.218;6.576;2022-08-23T15:30:50;26.30;66.60
58554;DHT22;48119;53.218;6.576;2022-08-23T15:33:16;26.30;66.40
58554;DHT22;48119;53.218;6.576;2022-08-23T15:35:45;26.30;66.40
58554;DHT22;48119;53.218;6.576;2022-08-23T15:38:13;26.30;66.20
58554;DHT22;48119;53.218;6.576;2022-08-23T15:40:45;26.30;66.70
58554;DHT22;48119;53.218;6.576;2022-08-23T15:43:17;26.30;66.50
58554;DHT22;48119;53.218;6.576;2022-08-23T15:45:45;26.30;66.40
58554;DHT22;48119;53.218;6.576;2022-08-23T15:48:25;26.30;66.50
58554;DHT22;48119;53.218;6.576;2022-08-23T15:50:55;26.30;66.50
58554;DHT22;48119;53.218;6.576;2022-08-23T15:53:22;26.40;66.80
58554;DHT22;48119;53.218;6.576;2022-08-23T15:55:48;26.30;66.90
58554;DHT22;48119;53.218;6.576;2022-08-23T15:58:22;26.30;66.50
58554;DHT22;48119;53.218;6.576;2022-08-23T16:00:52;26.30;66.30
58554;DHT22;48119;53.218;6.576;2022-08-23T16:03:20;26.30;66.60
58554;DHT22;48119;53.218;6.576;2022-08-23T16:05:51;26.30;67.00
58554;DHT22;48119;53.218;6.576;2022-08-23T16:08:31;26.30;66.40
58554;DHT22;48119;53.218;6.576;2022-08-23T16:10:58;26.30;66.10
58554;DHT22;48119;53.218;6.576;2022-08-23T16:13:24;26.30;65.80
58554;DHT22;48119;53.218;6.576;2022-08-23T16:15:51;26.20;66.00
58554;DHT22;48119;53.218;6.576;2022-08-23T16:18:17;26.20;65.70
58554;DHT22;48119;53.218;6.576;2022-08-23T16:20:49;26.20;65.50
58554;DHT22;48119;53.218;6.576;2022-08-23T16:23:15;26.20;65.70
58554;DHT22;48119;53.218;6.576;2022-08-23T16:25:41;26.20;66.00
58554;DHT22;48119;53.218;6.576;2022-08-23T16:28:07;26.20;65.90
58554;DHT22;48119;53.218;6.576;2022-08-23T16:30:33;26.20;66.30
58554;DHT22;48119;53.218;6.576;2022-08-23T16:33:00;26.20;69.20
58554;DHT22;48119;53.218;6.576;2022-08-23T16:35:25;26.20;73.50
58554;DHT22;48119;53.218;6.576;2022-08-23T16:37:51;26.20;76.00
58554;DHT22;48119;53.218;6.576;2022-08-23T16:40:19;26.10;77.40
58554;DHT22;48119;53.218;6.576;2022-08-23T16:42:44;26.10;78.90
58554;DHT22;48119;53.218;6.576;2022-08-23T16:45:12;26.10;80.20
58554;DHT22;48119;53.218;6.576;2022-08-23T16:47:41;26.00;81.70
58554;DHT22;48119;53.218;6.576;2022-08-23T16:50:12;26.00;81.30
58554;DHT22;48119;53.218;6.576;2022-08-23T16:52:38;26.00;82.60
58554;DHT22;48119;53.218;6.576;2022-08-23T16:55:07;25.90;83.20
58554;DHT22;48119;53.218;6.576;2022-08-23T16:57:34;25.90;83.70
58554;DHT22;48119;53.218;6.576;2022-08-23T17:00:00;25.80;83.70
58554;DHT22;48119;53.218;6.576;2022-08-23T17:02:33;25.80;84.30
58554;DHT22;48119;53.218;6.576;2022-08-23T17:04:59;25.80;84.90
58554;DHT22;48119;53.218;6.576;2022-08-23T17:07:25;25.70;85.10
58554;DHT22;48119;53.218;6.576;2022-08-23T17:09:51;25.70;85.30
58554;DHT22;48119;53.218;6.576;2022-08-23T17:12:17;25.70;85.90
58554;DHT22;48119;53.218;6.576;2022-08-23T17:14:44;25.60;87.00
58554;DHT22;48119;53.218;6.576;2022-08-23T17:17:13;25.60;87.10
58554;DHT22;48119;53.218;6.576;2022-08-23T17:19:40;25.60;87.10
58554;DHT22;48119;53.218;6.576;2022-08-23T17:22:09;25.60;87.10
58554;DHT22;48119;53.218;6.576;2022-08-23T17:24:34;25.50;87.20
58554;DHT22;48119;53.218;6.576;2022-08-23T17:27:02;25.50;87.20
58554;DHT22;48119;53.218;6.576;2022-08-23T17:29:28;25.50;87.30
58554;DHT22;48119;53.218;6.576;2022-08-23T17:31:54;25.50;87.80
58554;DHT22;48119;53.218;6.576;2022-08-23T17:34:20;25.50;88.40
58554;DHT22;48119;53.218;6.576;2022-08-23T17:36:48;25.40;88.30
58554;DHT22;48119;53.218;6.576;2022-08-23T17:39:18;25.40;88.30
58554;DHT22;48119;53.218;6.576;2022-08-23T17:41:44;25.40;88.60
58554;DHT22;48119;53.218;6.576;2022-08-23T17:44:10;25.30;88.90
58554;DHT22;48119;53.218;6.576;2022-08-23T17:46:37;25.30;88.70
58554;DHT22;48119;53.218;6.576;2022-08-23T17:49:03;25.30;88.80
58554;DHT22;48119;53.218;6.576;2022-08-23T17:51:30;25.30;89.40
58554;DHT22;48119;53.218;6.576;2022-08-23T17:53:56;25.20;89.50